Time;durP1;ratioP1;P1;durP2;ratioP2;P2;SDS_P1;SDS_P2;PMS_P1;PMS_P2;Temp;Humidity;BMP_temperature;BMP_pressure;BME280_temperature;BME280_humidity;BME280_pressure;Samples;Min_cycle;Max_cycle;Signal;HPM_P1;HPM_P2
2022/01/04 00:01:59;;;;;;;19.08;6.45;;;;;;;;;;5094653;28;20054;-77
2022/01/04 00:04:25;;;;;;;16.60;5.65;;;;;;;;;;5105018;28;20032;-76
2022/01/04 00:06:51;;;;;;;19.10;5.93;;;;;;;;;;5090910;28;20081;-76
2022/01/04 00:09:17;;;;;;;15.43;5.82;;;;;;;;;;5073897;28;20131;-77
2022/01/04 00:11:57;;;;;;;18.02;5.28;;;;;;;;;;5073615;28;20074;-78
2022/01/04 00:14:23;;;;;;;15.98;5.43;;;;;;;;;;5090942;28;20492;-77
2022/01/04 00:16:50;;;;;;;20.80;6.18;;;;;;;;;;5090507;28;20048;-76
2022/01/04 00:19:17;;;;;;;20.23;6.53;;;;;;;;;;5090308;28;20043;-77
2022/01/04 00:21:43;;;;;;;15.98;5.63;;;;;;;;;;5090277;28;20559;-79
2022/01/04 00:24:09;;;;;;;15.93;5.70;;;;;;;;;;5090946;28;20063;-77
2022/01/04 00:26:35;;;;;;;16.50;5.70;;;;;;;;;;5091228;28;20060;-76
2022/01/04 00:29:02;;;;;;;19.27;6.20;;;;;;;;;;5090846;28;20051;-76
2022/01/04 00:31:28;;;;;;;16.83;6.45;;;;;;;;;;5090641;28;20079;-75
2022/01/04 00:33:54;;;;;;;18.55;5.88;;;;;;;;;;5073826;28;20408;-77
2022/01/04 00:36:20;;;;;;;15.20;6.28;;;;;;;;;;5110265;28;20399;-77
2022/01/04 00:38:46;;;;;;;12.73;6.10;;;;;;;;;;5110659;28;20054;-76
2022/01/04 00:41:11;;;;;;;14.93;5.43;;;;;;;;;;5110690;28;20395;-78
2022/01/04 00:43:37;;;;;;;16.13;5.35;;;;;;;;;;5110712;28;20046;-76
2022/01/04 00:46:03;;;;;;;14.82;5.50;;;;;;;;;;5093812;28;20123;-78
2022/01/04 00:50:57;;;;;;;24.98;6.43;;;;;;;;;;5114785;28;20043;-76
2022/01/04 00:53:22;;;;;;;17.13;6.15;;;;;;;;;;5114401;28;20131;-77
2022/01/04 00:55:48;;;;;;;15.57;6.65;;;;;;;;;;5097588;28;20486;-78
2022/01/04 00:58:14;;;;;;;17.58;6.50;;;;;;;;;;5114364;28;20043;-77
2022/01/04 01:00:41;;;;;;;17.15;6.07;;;;;;;;;;5097667;28;20036;-77
2022/01/04 01:03:07;;;;;;;21.50;6.22;;;;;;;;;;5097337;28;20036;-75
2022/01/04 01:05:33;;;;;;;18.38;5.95;;;;;;;;;;5081099;28;20060;-77
2022/01/04 01:08:00;;;;;;;20.40;6.60;;;;;;;;;;5077114;28;20047;-77
2022/01/04 01:10:48;;;;;;;19.60;6.15;;;;;;;;;;5093738;28;20047;-78
2022/01/04 01:13:15;;;;;;;16.90;5.80;;;;;;;;;;5077257;28;20055;-76
2022/01/04 01:15:44;;;;;;;21.40;6.03;;;;;;;;;;5076963;28;20040;-77
2022/01/04 01:18:10;;;;;;;18.35;5.05;;;;;;;;;;5093609;28;20044;-77
2022/01/04 01:20:36;;;;;;;17.30;5.18;;;;;;;;;;5093496;28;20067;-77
2022/01/04 01:23:03;;;;;;;15.50;5.68;;;;;;;;;;5076563;28;20081;-77
2022/01/04 01:25:29;;;;;;;18.42;5.50;;;;;;;;;;5093297;28;20044;-77
2022/01/04 01:27:55;;;;;;;13.23;5.03;;;;;;;;;;5076757;28;20086;-77
2022/01/04 01:30:22;;;;;;;12.00;5.63;;;;;;;;;;5076476;28;20044;-77
2022/01/04 01:32:49;;;;;;;18.33;5.60;;;;;;;;;;5076435;28;20487;-77
2022/01/04 01:35:15;;;;;;;22.23;5.32;;;;;;;;;;5092109;28;20479;-77
2022/01/04 01:37:41;;;;;;;10.65;5.20;;;;;;;;;;5092967;28;20046;-77
2022/01/04 01:40:07;;;;;;;16.55;5.32;;;;;;;;;;5092829;28;20119;-77
2022/01/04 01:42:33;;;;;;;12.10;4.70;;;;;;;;;;5092950;28;20036;-77
2022/01/04 01:44:59;;;;;;;11.73;4.35;;;;;;;;;;5075904;28;20032;-76
2022/01/04 01:47:25;;;;;;;18.23;4.95;;;;;;;;;;5075665;28;20287;-77
2022/01/04 01:49:51;;;;;;;14.75;4.90;;;;;;;;;;5075885;28;20595;-77
2022/01/04 01:52:17;;;;;;;25.25;6.03;;;;;;;;;;5076060;28;20040;-78
2022/01/04 01:54:43;;;;;;;16.15;5.35;;;;;;;;;;5076005;28;20134;-77
2022/01/04 01:57:09;;;;;;;14.57;5.55;;;;;;;;;;5092495;28;20131;-76
2022/01/04 01:59:35;;;;;;;20.63;6.15;;;;;;;;;;5074980;28;20047;-77
2022/01/04 02:02:01;;;;;;;19.13;5.25;;;;;;;;;;5092595;28;20093;-77
2022/01/04 02:04:27;;;;;;;17.25;5.45;;;;;;;;;;5092487;28;20039;-77
2022/01/04 02:06:53;;;;;;;15.45;5.22;;;;;;;;;;5075852;28;20040;-77
2022/01/04 02:09:19;;;;;;;20.77;5.65;;;;;;;;;;5092269;28;20495;-76
2022/01/04 02:11:46;;;;;;;18.50;5.63;;;;;;;;;;5092174;28;20052;-78
2022/01/04 02:14:12;;;;;;;18.13;5.70;;;;;;;;;;5092486;28;20043;-77
2022/01/04 02:16:38;;;;;;;12.80;5.57;;;;;;;;;;5092291;28;20044;-77
2022/01/04 02:19:04;;;;;;;15.90;5.20;;;;;;;;;;5075691;28;20043;-77
2022/01/04 02:21:31;;;;;;;18.05;6.00;;;;;;;;;;5075182;28;20377;-77
2022/01/04 02:23:57;;;;;;;20.67;6.53;;;;;;;;;;5092169;28;20229;-77
2022/01/04 02:26:23;;;;;;;19.92;6.15;;;;;;;;;;5091950;28;20075;-77
2022/01/04 02:28:50;;;;;;;22.13;6.68;;;;;;;;;;5092333;28;20044;-76
2022/01/04 02:31:16;;;;;;;16.75;5.80;;;;;;;;;;5075226;28;20040;-77
2022/01/04 02:33:42;;;;;;;22.30;6.32;;;;;;;;;;5075236;28;20048;-77
2022/01/04 02:36:08;;;;;;;21.20;5.90;;;;;;;;;;5092026;28;20048;-77
2022/01/04 02:38:34;;;;;;;22.80;7.00;;;;;;;;;;5091998;28;20044;-78
2022/01/04 02:41:01;;;;;;;15.20;6.57;;;;;;;;;;5091705;28;20118;-77
2022/01/04 02:43:27;;;;;;;20.83;7.22;;;;;;;;;;5091178;28;20036;-78
2022/01/04 02:45:53;;;;;;;16.52;6.45;;;;;;;;;;5074946;28;20042;-77
2022/01/04 02:48:19;;;;;;;19.90;6.35;;;;;;;;;;5091335;28;20032;-77
2022/01/04 02:50:45;;;;;;;20.02;6.25;;;;;;;;;;5091415;28;20491;-77
2022/01/04 02:53:11;;;;;;;22.90;7.00;;;;;;;;;;5091246;28;20044;-75
2022/01/04 02:55:37;;;;;;;20.90;7.22;;;;;;;;;;5091449;28;20047;-77
2022/01/04 02:58:03;;;;;;;20.50;6.57;;;;;;;;;;5074546;28;20469;-78
2022/01/04 03:00:29;;;;;;;18.95;6.70;;;;;;;;;;5074816;28;20143;-78
2022/01/04 03:02:55;;;;;;;15.68;6.50;;;;;;;;;;5091408;28;20046;-76
2022/01/04 03:05:21;;;;;;;20.55;6.45;;;;;;;;;;5074251;28;20036;-77
2022/01/04 03:07:47;;;;;;;21.98;6.47;;;;;;;;;;5091343;28;20368;-78
2022/01/04 03:10:13;;;;;;;17.77;6.78;;;;;;;;;;5074480;28;20047;-77
2022/01/04 03:12:42;;;;;;;26.38;6.75;;;;;;;;;;5067891;28;20416;-77
2022/01/04 03:15:09;;;;;;;21.95;5.80;;;;;;;;;;5091074;28;20040;-78
2022/01/04 03:17:35;;;;;;;19.73;6.55;;;;;;;;;;5091031;28;20048;-77
2022/01/04 03:20:01;;;;;;;17.30;6.30;;;;;;;;;;5091184;28;20046;-75
2022/01/04 03:22:27;;;;;;;19.00;6.00;;;;;;;;;;5091362;28;20476;-78
2022/01/04 03:24:53;;;;;;;26.48;6.82;;;;;;;;;;5090837;28;20082;-78
2022/01/04 03:27:19;;;;;;;22.85;7.03;;;;;;;;;;5091196;28;20076;-78
2022/01/04 03:29:45;;;;;;;17.95;7.20;;;;;;;;;;5090587;28;20039;-77
2022/01/04 03:32:11;;;;;;;18.48;6.65;;;;;;;;;;5090716;28;20130;-77
2022/01/04 03:34:37;;;;;;;21.58;6.32;;;;;;;;;;5090923;28;20110;-77
2022/01/04 03:37:03;;;;;;;24.90;7.80;;;;;;;;;;5090382;28;20511;-77
2022/01/04 03:39:30;;;;;;;21.50;6.60;;;;;;;;;;5090798;28;20036;-77
2022/01/04 03:41:56;;;;;;;17.40;6.07;;;;;;;;;;5090281;28;20499;-77
2022/01/04 03:44:22;;;;;;;27.33;6.75;;;;;;;;;;5090603;28;20071;-78
2022/01/04 03:46:48;;;;;;;17.23;5.70;;;;;;;;;;5091051;28;20036;-77
2022/01/04 03:49:14;;;;;;;23.65;6.97;;;;;;;;;;5090653;28;20036;-75
2022/01/04 03:51:40;;;;;;;19.75;6.60;;;;;;;;;;5090634;28;20047;-75
2022/01/04 03:54:06;;;;;;;18.75;6.78;;;;;;;;;;5090624;28;20035;-77
2022/01/04 03:56:32;;;;;;;19.45;7.18;;;;;;;;;;5090630;28;20044;-77
2022/01/04 03:58:58;;;;;;;21.55;7.50;;;;;;;;;;5090939;28;20047;-77
2022/01/04 04:01:24;;;;;;;29.77;7.90;;;;;;;;;;5089368;28;20118;-77
2022/01/04 04:03:50;;;;;;;18.30;6.82;;;;;;;;;;5089940;28;20036;-76
2022/01/04 04:06:16;;;;;;;24.27;7.13;;;;;;;;;;5090291;28;20042;-76
2022/01/04 04:08:42;;;;;;;20.35;7.88;;;;;;;;;;5073479;28;20036;-77
2022/01/04 04:11:08;;;;;;;24.33;8.23;;;;;;;;;;5073105;28;20051;-77
2022/01/04 04:13:34;;;;;;;22.83;8.52;;;;;;;;;;5073540;28;20044;-77
2022/01/04 04:16:00;;;;;;;26.58;8.10;;;;;;;;;;5073571;28;20036;-77
2022/01/04 04:18:26;;;;;;;20.92;7.28;;;;;;;;;;5090255;28;20048;-77
2022/01/04 04:20:52;;;;;;;19.05;7.55;;;;;;;;;;5090653;28;20115;-77
2022/01/04 04:23:18;;;;;;;19.67;7.88;;;;;;;;;;5094109;28;20040;-77
2022/01/04 04:25:44;;;;;;;21.95;7.65;;;;;;;;;;5097059;28;20032;-77
2022/01/04 04:28:10;;;;;;;21.23;7.95;;;;;;;;;;5096975;28;20051;-76
2022/01/04 04:30:36;;;;;;;29.50;9.25;;;;;;;;;;5096968;28;20511;-77
2022/01/04 04:33:02;;;;;;;22.80;7.20;;;;;;;;;;5097206;28;20488;-77
2022/01/04 04:35:29;;;;;;;19.42;8.13;;;;;;;;;;5081247;28;20048;-77
2022/01/04 04:37:56;;;;;;;21.90;8.13;;;;;;;;;;5076340;28;20117;-77
2022/01/04 04:40:22;;;;;;;21.70;7.60;;;;;;;;;;5076263;28;20055;-77
2022/01/04 04:42:48;;;;;;;22.15;8.10;;;;;;;;;;5076389;28;20043;-77
2022/01/04 04:45:14;;;;;;;19.75;7.80;;;;;;;;;;5076595;28;20473;-77
2022/01/04 04:47:40;;;;;;;25.50;7.63;;;;;;;;;;5076450;28;20428;-77
2022/01/04 04:50:06;;;;;;;24.15;7.55;;;;;;;;;;5076428;28;20051;-77
2022/01/04 04:52:32;;;;;;;24.17;8.38;;;;;;;;;;5076298;28;20045;-77
2022/01/04 04:54:58;;;;;;;22.42;8.88;;;;;;;;;;5076417;28;20040;-77
2022/01/04 04:57:24;;;;;;;23.42;9.43;;;;;;;;;;5076478;28;20044;-77
2022/01/04 04:59:50;;;;;;;16.90;7.82;;;;;;;;;;5076425;28;20446;-76
2022/01/04 05:02:16;;;;;;;27.77;9.77;;;;;;;;;;5076484;28;20040;-77
2022/01/04 05:04:42;;;;;;;21.42;7.50;;;;;;;;;;5083221;28;20420;-75
2022/01/04 05:07:08;;;;;;;21.15;8.45;;;;;;;;;;5096633;28;20381;-77
2022/01/04 05:09:34;;;;;;;23.02;9.00;;;;;;;;;;5079743;28;20043;-78
2022/01/04 05:12:01;;;;;;;20.33;7.80;;;;;;;;;;5096312;28;20052;-77
2022/01/04 05:14:27;;;;;;;31.77;8.57;;;;;;;;;;5079969;28;20079;-77
2022/01/04 05:16:54;;;;;;;24.30;9.07;;;;;;;;;;5096470;28;20048;-77
2022/01/04 05:19:20;;;;;;;28.77;9.65;;;;;;;;;;5079693;28;20040;-77
2022/01/04 05:21:46;;;;;;;18.80;7.97;;;;;;;;;;5096548;28;20040;-77
2022/01/04 05:24:12;;;;;;;21.13;8.27;;;;;;;;;;5096723;28;20044;-77
2022/01/04 05:26:38;;;;;;;21.95;8.13;;;;;;;;;;5079614;28;20040;-77
2022/01/04 05:29:04;;;;;;;26.67;8.32;;;;;;;;;;5079385;28;20054;-77
2022/01/04 05:31:30;;;;;;;22.15;8.13;;;;;;;;;;5079478;28;20040;-77
2022/01/04 05:33:56;;;;;;;17.35;6.97;;;;;;;;;;5095473;28;20488;-77
2022/01/04 05:36:22;;;;;;;20.52;7.75;;;;;;;;;;5096122;28;20036;-77
2022/01/04 05:38:48;;;;;;;16.05;7.40;;;;;;;;;;5113386;28;20082;-77
2022/01/04 05:41:14;;;;;;;19.75;7.85;;;;;;;;;;5096552;28;20065;-78
2022/01/04 05:43:40;;;;;;;24.63;8.93;;;;;;;;;;5096668;28;20071;-77
2022/01/04 05:46:07;;;;;;;19.45;7.35;;;;;;;;;;5096153;28;20091;-77
2022/01/04 05:48:33;;;;;;;19.92;7.57;;;;;;;;;;5096053;28;20070;-76
2022/01/04 05:50:59;;;;;;;22.23;8.20;;;;;;;;;;5096227;28;20048;-77
2022/01/04 05:53:25;;;;;;;23.30;8.38;;;;;;;;;;5113209;28;20051;-77
2022/01/04 05:55:51;;;;;;;22.40;8.52;;;;;;;;;;5096455;28;20100;-77
2022/01/04 05:58:17;;;;;;;25.67;8.50;;;;;;;;;;5112956;28;20047;-76
2022/01/04 06:00:43;;;;;;;22.50;7.75;;;;;;;;;;5096112;28;20044;-76
2022/01/04 06:03:09;;;;;;;22.90;9.07;;;;;;;;;;5096021;28;20204;-77
2022/01/04 06:05:35;;;;;;;21.05;8.45;;;;;;;;;;5094411;28;20035;-77
2022/01/04 06:08:01;;;;;;;26.70;8.88;;;;;;;;;;5096144;28;20487;-77
2022/01/04 06:10:27;;;;;;;22.17;9.98;;;;;;;;;;5112797;28;20036;-77
2022/01/04 06:15:22;;;;;;;27.75;9.63;;;;;;;;;;5112816;28;20384;-77
2022/01/04 06:17:49;;;;;;;28.98;8.70;;;;;;;;;;5112731;28;20046;-77
2022/01/04 06:20:17;;;;;;;40.05;10.43;;;;;;;;;;5112853;28;20411;-77
2022/01/04 06:22:43;;;;;;;22.63;8.52;;;;;;;;;;5095825;28;20035;-77
2022/01/04 06:25:11;;;;;;;21.00;8.20;;;;;;;;;;5112937;28;20507;-77
2022/01/04 06:27:37;;;;;;;21.95;7.72;;;;;;;;;;5095518;28;20480;-77
2022/01/04 06:30:04;;;;;;;27.00;9.23;;;;;;;;;;5095420;28;20074;-78
2022/01/04 06:32:30;;;;;;;21.85;8.90;;;;;;;;;;5112583;28;20502;-78
2022/01/04 06:34:56;;;;;;;20.40;8.00;;;;;;;;;;5083486;28;20036;-77
2022/01/04 06:37:22;;;;;;;23.52;7.93;;;;;;;;;;5091645;28;20549;-77
2022/01/04 06:39:48;;;;;;;21.35;8.50;;;;;;;;;;5091109;28;20040;-77
2022/01/04 06:42:14;;;;;;;21.80;8.70;;;;;;;;;;5074511;28;20071;-76
2022/01/04 06:44:41;;;;;;;22.60;9.57;;;;;;;;;;5074784;28;20032;-77
2022/01/04 06:47:07;;;;;;;28.42;9.13;;;;;;;;;;5074820;28;20056;-78
2022/01/04 06:49:34;;;;;;;20.65;9.10;;;;;;;;;;5091728;28;20093;-76
2022/01/04 06:52:00;;;;;;;25.08;8.65;;;;;;;;;;5091768;28;20544;-78
2022/01/04 06:54:26;;;;;;;26.75;9.15;;;;;;;;;;5091751;28;20131;-76
2022/01/04 06:56:52;;;;;;;29.90;9.93;;;;;;;;;;5091828;28;20056;-77
2022/01/04 06:59:18;;;;;;;26.02;9.00;;;;;;;;;;5091747;28;20032;-75
2022/01/04 07:01:44;;;;;;;20.33;8.90;;;;;;;;;;5091771;28;20450;-77
2022/01/04 07:04:11;;;;;;;33.90;9.35;;;;;;;;;;5076629;28;20043;-77
2022/01/04 07:06:37;;;;;;;22.65;10.20;;;;;;;;;;5094668;28;20411;-77
2022/01/04 07:09:04;;;;;;;20.98;9.00;;;;;;;;;;5076955;28;20039;-77
2022/01/04 07:11:31;;;;;;;18.08;8.40;;;;;;;;;;5080005;28;20067;-77
2022/01/04 07:13:57;;;;;;;23.35;8.02;;;;;;;;;;5080542;28;20040;-77
2022/01/04 07:16:23;;;;;;;16.52;7.43;;;;;;;;;;5081726;28;20487;-77
2022/01/04 07:18:49;;;;;;;22.65;8.00;;;;;;;;;;5080130;28;20412;-76
2022/01/04 07:21:15;;;;;;;19.95;7.40;;;;;;;;;;5080578;28;20046;-78
2022/01/04 07:23:42;;;;;;;18.45;7.70;;;;;;;;;;5085789;28;20252;-77
2022/01/04 07:26:11;;;;;;;22.60;7.75;;;;;;;;;;5080137;28;20534;-77
2022/01/04 07:28:38;;;;;;;20.23;7.60;;;;;;;;;;5080268;28;20079;-77
2022/01/04 07:31:04;;;;;;;17.70;7.55;;;;;;;;;;5081330;28;20133;-78
2022/01/04 07:33:30;;;;;;;21.98;7.47;;;;;;;;;;5079981;28;20051;-77
2022/01/04 07:35:56;;;;;;;14.63;6.90;;;;;;;;;;5083524;28;20091;-77
2022/01/04 07:38:22;;;;;;;23.38;8.55;;;;;;;;;;5079092;28;20068;-77
2022/01/04 07:40:48;;;;;;;20.00;8.45;;;;;;;;;;5080800;28;20097;-78
2022/01/04 07:43:14;;;;;;;18.60;8.25;;;;;;;;;;5080519;28;20470;-77
2022/01/04 07:45:40;;;;;;;19.63;7.82;;;;;;;;;;5079700;28;20056;-77
2022/01/04 07:48:10;;;;;;;22.40;8.30;;;;;;;;;;5078421;28;20036;-77
2022/01/04 07:50:37;;;;;;;23.10;9.27;;;;;;;;;;5080409;28;20039;-80
2022/01/04 07:53:03;;;;;;;23.70;9.15;;;;;;;;;;5079036;28;20124;-77
2022/01/04 07:55:29;;;;;;;27.02;11.10;;;;;;;;;;5081860;28;20548;-77
2022/01/04 07:57:55;;;;;;;24.90;9.63;;;;;;;;;;5079195;28;20188;-78
2022/01/04 08:00:21;;;;;;;28.63;10.32;;;;;;;;;;5081291;28;20143;-77
2022/01/04 08:02:47;;;;;;;24.98;10.63;;;;;;;;;;5079146;28;20390;-77
2022/01/04 08:05:14;;;;;;;21.83;10.45;;;;;;;;;;5083225;28;20028;-77
2022/01/04 08:07:40;;;;;;;25.98;10.63;;;;;;;;;;5079011;28;20047;-77
2022/01/04 08:10:06;;;;;;;32.83;10.15;;;;;;;;;;5078994;28;20119;-78
2022/01/04 08:12:32;;;;;;;22.52;9.27;;;;;;;;;;5080048;28;20492;-77
2022/01/04 08:14:58;;;;;;;24.70;9.73;;;;;;;;;;5080783;28;20484;-78
2022/01/04 08:17:24;;;;;;;22.13;9.02;;;;;;;;;;5078707;28;20036;-78
2022/01/04 08:19:53;;;;;;;24.75;9.32;;;;;;;;;;5080650;28;20032;-78
2022/01/04 08:22:19;;;;;;;20.10;8.73;;;;;;;;;;5078732;28;20028;-79
2022/01/04 08:24:45;;;;;;;21.38;9.10;;;;;;;;;;5070133;28;20135;-78
2022/01/04 08:27:11;;;;;;;21.85;9.55;;;;;;;;;;5065934;28;20056;-76
2022/01/04 08:29:37;;;;;;;18.42;8.43;;;;;;;;;;5067189;28;20504;-77
2022/01/04 08:32:03;;;;;;;21.58;8.25;;;;;;;;;;5066429;28;20098;-78
2022/01/04 08:34:29;;;;;;;17.45;6.60;;;;;;;;;;5071240;28;20040;-78
2022/01/04 08:36:56;;;;;;;11.50;3.80;;;;;;;;;;5070103;28;20063;-77
2022/01/04 08:39:26;;;;;;;8.48;2.05;;;;;;;;;;5088246;28;20039;-79
2022/01/04 08:41:54;;;;;;;10.93;2.70;;;;;;;;;;5070482;28;20117;-78
2022/01/04 08:44:21;;;;;;;8.82;3.22;;;;;;;;;;5071654;28;20042;-78
2022/01/04 08:46:46;;;;;;;7.63;2.25;;;;;;;;;;5071444;28;20044;-77
2022/01/04 08:49:12;;;;;;;3.80;1.90;;;;;;;;;;5070825;28;20577;-78
2022/01/04 08:51:39;;;;;;;8.13;2.08;;;;;;;;;;5086130;28;20547;-79
2022/01/04 08:54:05;;;;;;;8.07;1.80;;;;;;;;;;5069771;28;20055;-78
2022/01/04 08:56:31;;;;;;;4.53;2.10;;;;;;;;;;5086543;28;20040;-78
2022/01/04 08:58:57;;;;;;;6.95;2.90;;;;;;;;;;5086374;28;20114;-78
2022/01/04 09:01:23;;;;;;;5.50;2.55;;;;;;;;;;5086752;28;20044;-78
2022/01/04 09:03:49;;;;;;;10.85;3.40;;;;;;;;;;5069917;28;20048;-78
2022/01/04 09:06:15;;;;;;;5.03;2.38;;;;;;;;;;5069226;28;20044;-80
2022/01/04 09:08:42;;;;;;;3.45;1.67;;;;;;;;;;5087586;28;20047;-77
2022/01/04 09:11:08;;;;;;;3.92;1.17;;;;;;;;;;5090021;28;20059;-76
2022/01/04 09:13:38;;;;;;;2.90;1.48;;;;;;;;;;5073430;28;20044;-79
2022/01/04 09:18:43;;;;;;;3.90;1.83;;;;;;;;;;5091173;28;20131;-77
2022/01/04 09:21:17;;;;;;;3.13;1.58;;;;;;;;;;5091380;28;20500;-78
2022/01/04 09:23:45;;;;;;;6.95;1.85;;;;;;;;;;5076034;28;20080;-79
2022/01/04 09:26:11;;;;;;;6.47;2.25;;;;;;;;;;5093058;28;20441;-78
2022/01/04 09:28:37;;;;;;;7.60;2.17;;;;;;;;;;5093275;28;20136;-79
2022/01/04 09:31:03;;;;;;;8.32;2.50;;;;;;;;;;5092464;28;20499;-78
2022/01/04 09:33:29;;;;;;;4.63;2.25;;;;;;;;;;5092241;28;20048;-77
2022/01/04 09:35:56;;;;;;;7.97;2.28;;;;;;;;;;5075342;28;20135;-79
2022/01/04 09:38:21;;;;;;;5.60;2.55;;;;;;;;;;5090990;28;20040;-79
2022/01/04 09:40:51;;;;;;;4.63;2.25;;;;;;;;;;5089912;28;20080;-79
2022/01/04 09:43:20;;;;;;;7.72;2.50;;;;;;;;;;5089995;28;20073;-77
2022/01/04 09:45:46;;;;;;;6.57;2.30;;;;;;;;;;5090412;28;20104;-78
2022/01/04 09:48:12;;;;;;;5.45;1.98;;;;;;;;;;5091244;28;20082;-78
2022/01/04 09:50:39;;;;;;;5.80;1.55;;;;;;;;;;5092122;28;20575;-77
2022/01/04 09:53:06;;;;;;;6.47;1.48;;;;;;;;;;5075293;28;20130;-81
2022/01/04 09:55:33;;;;;;;4.13;1.35;;;;;;;;;;5073574;28;20048;-78
2022/01/04 09:57:59;;;;;;;4.03;1.45;;;;;;;;;;5090829;28;20036;-79
2022/01/04 10:00:25;;;;;;;2.75;1.33;;;;;;;;;;5092913;28;20071;-76
2022/01/04 10:02:52;;;;;;;7.72;1.17;;;;;;;;;;5074194;28;20044;-77
2022/01/04 10:05:25;;;;;;;2.72;1.00;;;;;;;;;;5091852;28;20499;-78
2022/01/04 10:08:02;;;;;;;3.15;1.20;;;;;;;;;;5076670;28;20061;-79
2022/01/04 10:10:28;;;;;;;3.85;1.38;;;;;;;;;;5092623;28;20092;-79
2022/01/04 10:12:59;;;;;;;1.83;1.15;;;;;;;;;;5091587;28;20553;-78
2022/01/04 10:15:33;;;;;;;2.90;0.90;;;;;;;;;;5089461;28;20054;-78
2022/01/04 10:18:18;;;;;;;1.45;0.73;;;;;;;;;;5089118;28;20044;-76
2022/01/04 10:20:45;;;;;;;3.25;0.70;;;;;;;;;;5091476;28;20043;-76
2022/01/04 10:23:12;;;;;;;2.33;1.10;;;;;;;;;;5076150;28;20710;-75
2022/01/04 10:25:38;;;;;;;2.20;1.15;;;;;;;;;;5091920;28;20050;-78
2022/01/04 10:28:05;;;;;;;2.58;0.70;;;;;;;;;;5074354;28;20154;-75
2022/01/04 10:30:32;;;;;;;2.28;0.57;;;;;;;;;;5089722;28;20048;-76
2022/01/04 10:33:01;;;;;;;2.42;0.93;;;;;;;;;;5089731;28;20051;-76
2022/01/04 10:35:36;;;;;;;1.17;0.50;;;;;;;;;;5090797;28;20044;-77
2022/01/04 10:38:17;;;;;;;3.90;1.02;;;;;;;;;;5072650;28;20036;-76
2022/01/04 10:40:45;;;;;;;3.85;0.88;;;;;;;;;;5088878;28;20057;-79
2022/01/04 10:43:16;;;;;;;1.98;1.00;;;;;;;;;;5072104;28;20043;-76
2022/01/04 10:45:43;;;;;;;3.42;0.70;;;;;;;;;;5089452;28;20484;-78
2022/01/04 10:48:22;;;;;;;4.18;0.60;;;;;;;;;;5088873;28;20131;-77
2022/01/04 10:50:56;;;;;;;1.80;0.90;;;;;;;;;;5072789;28;20040;-77
2022/01/04 10:53:22;;;;;;;0.65;0.55;;;;;;;;;;5090169;28;20159;-76
2022/01/04 10:55:50;;;;;;;2.75;0.75;;;;;;;;;;5089023;28;20108;-75
2022/01/04 10:58:20;;;;;;;0.55;0.55;;;;;;;;;;5072550;28;20040;-76
2022/01/04 11:00:57;;;;;;;1.98;0.82;;;;;;;;;;5073846;28;20036;-77
2022/01/04 11:03:24;;;;;;;2.05;0.93;;;;;;;;;;5108216;28;20039;-76
2022/01/04 11:06:02;;;;;;;2.72;1.45;;;;;;;;;;5093009;28;20130;-75
2022/01/04 11:08:28;;;;;;;4.00;0.80;;;;;;;;;;5092464;28;20522;-76
2022/01/04 11:10:55;;;;;;;10.95;1.20;;;;;;;;;;5092167;28;20071;-77
2022/01/04 11:13:22;;;;;;;0.98;0.57;;;;;;;;;;5109020;28;20584;-77
2022/01/04 11:15:48;;;;;;;4.28;0.85;;;;;;;;;;5108965;28;20476;-78
2022/01/04 11:18:14;;;;;;;3.83;0.50;;;;;;;;;;5093555;28;20051;-78
2022/01/04 11:20:41;;;;;;;0.88;0.40;;;;;;;;;;5094241;28;20063;-75
2022/01/04 11:23:08;;;;;;;1.88;0.50;;;;;;;;;;5094102;28;20071;-75
2022/01/04 11:25:34;;;;;;;1.77;0.57;;;;;;;;;;5109339;28;20082;-77
2022/01/04 11:28:01;;;;;;;4.88;0.75;;;;;;;;;;5110805;28;20074;-77
2022/01/04 11:30:38;;;;;;;1.85;0.57;;;;;;;;;;5107859;28;20039;-77
2022/01/04 11:33:07;;;;;;;1.00;0.50;;;;;;;;;;5090595;28;20491;-78
2022/01/04 11:35:33;;;;;;;1.75;1.65;;;;;;;;;;5094171;28;20048;-78
2022/01/04 11:38:00;;;;;;;4.43;0.60;;;;;;;;;;5071655;28;20491;-77
2022/01/04 11:40:42;;;;;;;1.27;0.50;;;;;;;;;;5070894;28;20032;-76
2022/01/04 11:43:24;;;;;;;3.45;0.57;;;;;;;;;;5092417;28;20373;-76
2022/01/04 11:45:51;;;;;;;2.67;0.80;;;;;;;;;;5098398;28;20097;-76
2022/01/04 11:48:27;;;;;;;3.60;0.50;;;;;;;;;;5080766;28;20033;-75
2022/01/04 11:51:19;;;;;;;0.73;0.30;;;;;;;;;;5087810;28;20047;-74
2022/01/04 11:54:05;;;;;;;0.45;0.30;;;;;;;;;;5053066;28;20055;-75
2022/01/04 11:56:46;;;;;;;0.43;0.32;;;;;;;;;;5072477;28;20172;-75
2022/01/04 11:59:18;;;;;;;0.10;0.10;;;;;;;;;;5070275;28;20048;-78
2022/01/04 12:01:44;;;;;;;2.13;0.15;;;;;;;;;;5086413;28;20503;-77
2022/01/04 12:04:10;;;;;;;0.28;0.15;;;;;;;;;;5091680;28;20042;-77
2022/01/04 12:06:42;;;;;;;1.98;0.68;;;;;;;;;;5110129;28;20052;-75
2022/01/04 12:09:25;;;;;;;2.72;0.30;;;;;;;;;;5092927;28;20035;-76
2022/01/04 12:11:51;;;;;;;1.90;0.30;;;;;;;;;;5093348;28;20048;-74
2022/01/04 12:14:24;;;;;;;6.47;0.98;;;;;;;;;;5110044;28;20047;-77
2022/01/04 12:17:01;;;;;;;1.95;0.20;;;;;;;;;;5075864;28;20468;-77
2022/01/04 12:19:44;;;;;;;1.13;0.25;;;;;;;;;;5068223;28;20138;-76
2022/01/04 12:22:11;;;;;;;5.30;0.43;;;;;;;;;;5069466;28;20044;-75
2022/01/04 12:24:42;;;;;;;1.83;0.50;;;;;;;;;;5069829;28;20048;-77
2022/01/04 12:27:08;;;;;;;;;;;;;;;;;;5070056;28;20462;-77
2022/01/04 12:29:34;;;;;;;2.97;0.50;;;;;;;;;;5069777;28;19920;-77
2022/01/04 12:32:04;;;;;;;3.88;0.43;;;;;;;;;;5069040;28;20098;-77
2022/01/04 12:34:33;;;;;;;2.63;0.40;;;;;;;;;;5076364;28;20148;-78
2022/01/04 12:36:59;;;;;;;0.98;0.30;;;;;;;;;;5074390;28;20044;-78
2022/01/04 12:39:33;;;;;;;4.60;0.68;;;;;;;;;;5094574;28;20051;-78
2022/01/04 12:41:59;;;;;;;5.13;0.70;;;;;;;;;;5088774;28;20078;-78
2022/01/04 12:44:26;;;;;;;4.05;0.45;;;;;;;;;;5089847;28;20043;-76
2022/01/04 12:46:52;;;;;;;0.65;0.38;;;;;;;;;;5093818;28;20099;-77
2022/01/04 12:49:23;;;;;;;3.60;0.95;;;;;;;;;;5093496;28;20175;-78
2022/01/04 12:51:56;;;;;;;12.77;1.90;;;;;;;;;;5094522;28;20048;-76
2022/01/04 12:54:27;;;;;;;6.72;0.68;;;;;;;;;;5092030;28;20083;-77
2022/01/04 12:56:53;;;;;;;1.52;0.32;;;;;;;;;;5092971;28;20047;-77
2022/01/04 12:59:22;;;;;;;2.47;0.40;;;;;;;;;;5093640;28;20048;-78
2022/01/04 13:01:49;;;;;;;1.45;0.50;;;;;;;;;;5092710;28;20044;-77
2022/01/04 13:04:22;;;;;;;2.50;0.32;;;;;;;;;;5091499;28;20047;-77
2022/01/04 13:06:49;;;;;;;0.80;0.45;;;;;;;;;;5096364;28;20671;-77
2022/01/04 13:09:22;;;;;;;3.13;0.30;;;;;;;;;;5077037;28;20051;-78
2022/01/04 13:11:59;;;;;;;0.38;0.25;;;;;;;;;;5096615;28;20052;-76
2022/01/04 13:14:26;;;;;;;1.42;0.60;;;;;;;;;;5078134;28;20083;-77
2022/01/04 13:17:01;;;;;;;5.15;0.80;;;;;;;;;;5077214;28;20093;-74
2022/01/04 13:19:28;;;;;;;2.90;0.98;;;;;;;;;;5094653;28;20047;-78
2022/01/04 13:21:58;;;;;;;12.25;1.05;;;;;;;;;;5077627;28;20032;-74
2022/01/04 13:24:48;;;;;;;5.38;0.45;;;;;;;;;;5099525;28;20097;-78
2022/01/04 13:27:33;;;;;;;5.15;1.02;;;;;;;;;;5091705;28;20109;-77
2022/01/04 13:30:13;;;;;;;3.63;0.70;;;;;;;;;;5086750;28;20048;-76
2022/01/04 13:32:40;;;;;;;2.63;0.60;;;;;;;;;;5077734;28;20037;-78
2022/01/04 13:35:09;;;;;;;2.10;0.60;;;;;;;;;;5098997;28;20040;-77
2022/01/04 13:37:35;;;;;;;5.10;1.13;;;;;;;;;;5097751;28;20406;-78
2022/01/04 13:40:05;;;;;;;2.80;0.40;;;;;;;;;;5079065;28;20040;-78
2022/01/04 13:42:35;;;;;;;13.77;7.38;;;;;;;;;;5079209;28;20036;-77
2022/01/04 13:45:03;;;;;;;5.83;4.20;;;;;;;;;;5076783;28;20582;-77
2022/01/04 13:47:33;;;;;;;7.35;3.00;;;;;;;;;;5069383;28;20520;-77
2022/01/04 13:50:12;;;;;;;16.65;9.27;;;;;;;;;;5069817;28;20447;-77
2022/01/04 13:52:38;;;;;;;14.60;8.05;;;;;;;;;;5071598;28;20040;-77
2022/01/04 13:55:05;;;;;;;8.27;3.53;;;;;;;;;;5069795;28;20439;-77
2022/01/04 13:57:31;;;;;;;2.15;1.40;;;;;;;;;;5069481;28;20051;-78
2022/01/04 13:59:57;;;;;;;2.53;1.10;;;;;;;;;;5069370;28;20043;-77
2022/01/04 14:02:27;;;;;;;3.35;0.95;;;;;;;;;;5071018;28;20500;-76
2022/01/04 14:05:12;;;;;;;6.18;0.80;;;;;;;;;;5088894;28;20391;-76
2022/01/04 14:07:38;;;;;;;5.47;2.35;;;;;;;;;;5111579;28;20051;-77
2022/01/04 14:10:04;;;;;;;15.77;6.10;;;;;;;;;;5093995;28;20079;-76
2022/01/04 14:12:30;;;;;;;6.85;2.63;;;;;;;;;;5110908;28;20184;-77
2022/01/04 14:14:57;;;;;;;6.97;2.13;;;;;;;;;;5093975;28;20490;-78
2022/01/04 14:17:24;;;;;;;2.28;0.80;;;;;;;;;;5093407;28;20130;-75
2022/01/04 14:19:54;;;;;;;3.70;1.40;;;;;;;;;;5111102;28;20043;-76
2022/01/04 14:22:20;;;;;;;2.10;0.93;;;;;;;;;;5111289;28;20165;-78
2022/01/04 14:24:47;;;;;;;6.95;1.02;;;;;;;;;;5093858;28;20368;-75
2022/01/04 14:27:26;;;;;;;2.63;0.80;;;;;;;;;;5110684;28;20044;-76
2022/01/04 14:29:56;;;;;;;3.17;1.25;;;;;;;;;;5093277;28;20202;-76
2022/01/04 14:32:24;;;;;;;4.88;1.02;;;;;;;;;;5110482;28;20043;-74
2022/01/04 14:34:51;;;;;;;6.15;0.80;;;;;;;;;;5098703;28;20127;-74
2022/01/04 14:37:17;;;;;;;3.50;0.85;;;;;;;;;;5073004;28;20043;-75
2022/01/04 14:39:43;;;;;;;12.15;1.45;;;;;;;;;;5072724;28;20085;-78
2022/01/04 14:42:09;;;;;;;7.05;1.30;;;;;;;;;;5072297;28;20036;-75
2022/01/04 14:44:35;;;;;;;6.45;0.95;;;;;;;;;;5073242;28;20051;-75
2022/01/04 14:47:02;;;;;;;8.65;1.20;;;;;;;;;;5072669;28;20110;-77